createdAt,value
2022-10-19T00:01:06.685Z,7.82
2022-10-19T00:03:34.743Z,8.35
2022-10-19T00:06:10.951Z,7.80
2022-10-19T00:08:38.516Z,8.60
2022-10-19T00:11:05.804Z,8.15
2022-10-19T00:13:33.316Z,7.88
2022-10-19T00:16:00.435Z,7.95
2022-10-19T00:18:27.607Z,7.55
2022-10-19T00:21:05.592Z,8.77
2022-10-19T00:23:33.118Z,7.85
2022-10-19T00:26:00.524Z,8.00
2022-10-19T00:28:27.740Z,9.07
2022-10-19T00:30:55.001Z,7.43
2022-10-19T00:33:22.521Z,8.57
2022-10-19T00:35:50.949Z,8.50
2022-10-19T00:38:18.937Z,8.23
2022-10-19T00:40:46.331Z,7.95
2022-10-19T00:43:18.076Z,7.97
2022-10-19T00:45:45.310Z,7.55
2022-10-19T00:48:15.027Z,8.68
2022-10-19T00:50:42.646Z,8.20
2022-10-19T00:53:09.816Z,7.13
2022-10-19T00:55:37.636Z,7.93
2022-10-19T00:58:04.803Z,7.70
2022-10-19T01:00:33.803Z,7.55
2022-10-19T01:03:01.385Z,6.90
2022-10-19T01:05:28.644Z,7.80
2022-10-19T01:07:56.162Z,7.90
2022-10-19T01:10:30.115Z,7.93
2022-10-19T01:13:14.901Z,7.72
2022-10-19T01:15:46.060Z,8.13
2022-10-19T01:18:21.218Z,8.38
2022-10-19T01:21:13.254Z,8.25
2022-10-19T01:23:43.401Z,9.25
2022-10-19T01:26:38.769Z,8.05
2022-10-19T01:29:15.174Z,9.23
2022-10-19T01:31:47.266Z,8.90
2022-10-19T01:34:23.420Z,8.40
2022-10-19T01:37:36.285Z,8.38
2022-10-19T01:40:12.524Z,8.57
2022-10-19T01:42:46.765Z,8.90
2022-10-19T01:48:07.296Z,8.63
2022-10-19T01:50:36.385Z,9.23
2022-10-19T01:53:04.178Z,9.93
2022-10-19T01:55:31.635Z,9.75
2022-10-19T01:58:02.018Z,9.13
2022-10-19T02:00:29.974Z,9.70
2022-10-19T02:02:57.498Z,10.35
2022-10-19T02:05:30.297Z,9.98
2022-10-19T02:08:03.890Z,10.70
2022-10-19T02:10:31.744Z,10.48
2022-10-19T02:12:58.907Z,9.35
2022-10-19T02:15:26.767Z,10.25
2022-10-19T02:17:57.398Z,10.30
2022-10-19T02:20:24.579Z,10.30
2022-10-19T02:22:51.760Z,10.30
2022-10-19T02:25:19.177Z,12.25
2022-10-19T02:27:46.319Z,10.80
2022-10-19T02:30:14.954Z,11.90
2022-10-19T02:32:42.664Z,11.93
2022-10-19T02:35:10.250Z,13.95
2022-10-19T02:37:37.699Z,14.93
2022-10-19T02:40:05.538Z,14.00
2022-10-19T02:42:48.125Z,15.98
2022-10-19T02:45:27.501Z,15.40
2022-10-19T02:47:59.953Z,15.45
2022-10-19T02:50:27.106Z,14.68
2022-10-19T02:52:54.297Z,16.52
2022-10-19T02:55:21.466Z,15.43
2022-10-19T02:57:48.824Z,15.75
2022-10-19T03:00:16.004Z,16.00
2022-10-19T03:02:43.381Z,15.70
2022-10-19T03:05:10.536Z,15.50
2022-10-19T03:07:37.816Z,15.90
2022-10-19T03:10:05.344Z,15.98
2022-10-19T03:12:32.547Z,15.88
2022-10-19T03:14:59.844Z,15.68
2022-10-19T03:17:27.180Z,15.10
2022-10-19T03:19:54.358Z,15.63
2022-10-19T03:22:21.577Z,16.65
2022-10-19T03:24:48.744Z,16.40
2022-10-19T03:27:15.945Z,16.08
2022-10-19T03:29:43.106Z,16.58
2022-10-19T03:32:10.332Z,16.42
2022-10-19T03:34:37.544Z,16.95
2022-10-19T03:37:04.866Z,17.33
2022-10-19T03:39:32.007Z,16.92
2022-10-19T03:41:59.185Z,16.85
2022-10-19T03:44:26.341Z,16.55
2022-10-19T03:46:53.690Z,18.60
2022-10-19T03:49:20.926Z,17.52
2022-10-19T03:51:48.103Z,17.88
2022-10-19T03:54:16.153Z,17.80
2022-10-19T03:56:43.359Z,17.13
2022-10-19T03:59:14.974Z,17.77
2022-10-19T04:01:44.303Z,17.90
2022-10-19T04:04:13.775Z,17.60
2022-10-19T04:06:42.733Z,17.65
2022-10-19T04:09:12.076Z,17.55
2022-10-19T04:11:39.213Z,18.67
2022-10-19T04:14:06.551Z,17.50
2022-10-19T04:16:33.798Z,18.13
2022-10-19T04:19:01.089Z,18.13
2022-10-19T04:21:29.294Z,18.33
2022-10-19T04:24:15.926Z,18.55
2022-10-19T04:26:47.947Z,18.20
2022-10-19T04:29:15.615Z,17.75
2022-10-19T04:31:43.095Z,17.70
2022-10-19T04:34:10.379Z,17.48
2022-10-19T04:36:37.810Z,18.58
2022-10-19T04:39:05.429Z,17.92
2022-10-19T04:41:33.212Z,18.67
2022-10-19T04:44:02.472Z,16.88
2022-10-19T04:46:29.866Z,17.10
2022-10-19T04:48:58.081Z,17.45
2022-10-19T04:51:25.459Z,17.83
2022-10-19T04:53:56.909Z,18.75
2022-10-19T04:56:26.881Z,17.38
2022-10-19T04:59:00.434Z,17.27
2022-10-19T05:01:28.626Z,17.80
2022-10-19T05:06:30.024Z,17.77
2022-10-19T05:08:57.497Z,18.85
2022-10-19T05:11:24.649Z,16.58
2022-10-19T05:13:51.949Z,17.77
2022-10-19T05:16:21.404Z,18.30
2022-10-19T05:18:49.934Z,17.58
2022-10-19T05:21:17.264Z,19.75
2022-10-19T05:23:44.545Z,18.42
2022-10-19T05:26:13.843Z,18.73
2022-10-19T05:28:41.141Z,18.13
2022-10-19T05:31:13.240Z,18.45
2022-10-19T05:33:40.677Z,18.23
2022-10-19T05:36:27.521Z,19.75
2022-10-19T05:38:56.330Z,17.55
2022-10-19T05:41:24.035Z,17.05
2022-10-19T05:43:56.004Z,16.33
2022-10-19T05:46:23.566Z,17.13
2022-10-19T05:48:50.738Z,17.38
2022-10-19T05:51:19.630Z,17.55
2022-10-19T05:53:46.874Z,16.38
2022-10-19T05:56:27.702Z,16.35
2022-10-19T05:58:58.939Z,16.38
2022-10-19T06:01:26.299Z,16.65
2022-10-19T06:03:54.617Z,16.20
2022-10-19T06:06:22.017Z,17.05
2022-10-19T06:08:49.395Z,15.70
2022-10-19T06:11:18.605Z,14.85
2022-10-19T06:13:46.330Z,15.85
2022-10-19T06:16:14.328Z,15.00
2022-10-19T06:18:42.847Z,15.95
2022-10-19T06:21:14.706Z,16.05
2022-10-19T06:26:13.666Z,15.00
2022-10-19T06:28:41.616Z,15.55
2022-10-19T06:31:09.584Z,17.25
2022-10-19T06:33:37.171Z,14.60
2022-10-19T06:36:15.084Z,14.90
2022-10-19T06:38:42.444Z,16.52
2022-10-19T06:41:10.170Z,16.67
2022-10-19T06:43:37.379Z,16.85
2022-10-19T06:46:08.602Z,18.23
2022-10-19T06:48:35.909Z,17.98
2022-10-19T06:51:06.294Z,19.67
2022-10-19T06:53:35.254Z,19.33
2022-10-19T06:56:07.243Z,19.80
2022-10-19T06:58:37.644Z,18.42
2022-10-19T07:01:05.155Z,17.92
2022-10-19T07:03:32.297Z,18.23
2022-10-19T07:06:00.868Z,18.92
2022-10-19T07:08:28.843Z,16.95
2022-10-19T07:10:57.725Z,18.17
2022-10-19T07:13:25.670Z,17.92
2022-10-19T07:16:07.435Z,19.20
2022-10-19T07:18:35.339Z,19.00
2022-10-19T07:21:04.194Z,17.38
2022-10-19T07:23:31.961Z,18.70
2022-10-19T07:26:01.859Z,21.00
2022-10-19T07:28:29.612Z,18.13
2022-10-19T07:30:59.887Z,20.20
2022-10-19T07:33:27.683Z,18.77
2022-10-19T07:36:00.028Z,18.85
2022-10-19T07:38:27.422Z,21.10
2022-10-19T07:41:08.855Z,20.17
2022-10-19T07:43:36.382Z,20.40
2022-10-19T07:46:05.679Z,21.95
2022-10-19T07:48:33.341Z,22.35
2022-10-19T07:51:04.795Z,22.13
2022-10-19T07:53:32.223Z,22.45
2022-10-19T07:56:07.500Z,23.17
2022-10-19T07:58:35.397Z,22.90
2022-10-19T08:01:12.567Z,23.92
2022-10-19T08:06:27.276Z,25.20
2022-10-19T08:08:54.879Z,24.98
2022-10-19T08:11:24.705Z,23.42
2022-10-19T08:13:52.134Z,24.15
2022-10-19T08:16:33.614Z,24.50
2022-10-19T08:19:03.241Z,23.52
2022-10-19T08:21:31.044Z,25.15
2022-10-19T08:23:58.354Z,24.50
2022-10-19T08:26:27.983Z,25.55
2022-10-19T08:29:02.346Z,25.15
2022-10-19T08:31:29.848Z,23.85
2022-10-19T08:33:57.252Z,24.20
2022-10-19T08:36:24.623Z,24.33
2022-10-19T08:38:52.020Z,23.67
2022-10-19T08:41:23.531Z,24.67
2022-10-19T08:44:06.287Z,22.92
2022-10-19T08:46:39.512Z,24.38
2022-10-19T08:49:09.152Z,23.98
2022-10-19T08:51:37.686Z,23.45
2022-10-19T08:54:12.031Z,24.80
2022-10-19T08:56:51.167Z,24.20
2022-10-19T08:59:36.481Z,23.65
2022-10-19T09:02:29.589Z,23.02
2022-10-19T09:05:03.631Z,22.60
2022-10-19T09:07:36.972Z,24.25
2022-10-19T09:10:16.844Z,22.88
2022-10-19T09:13:03.961Z,23.00
2022-10-19T09:15:42.059Z,22.45
2022-10-19T09:18:24.655Z,23.00
2022-10-19T09:21:04.292Z,22.50
2022-10-19T09:23:59.910Z,23.25
2022-10-19T09:26:29.300Z,23.42
2022-10-19T09:29:22.092Z,21.17
2022-10-19T09:31:49.294Z,21.60
2022-10-19T09:34:19.231Z,20.38
2022-10-19T09:36:51.112Z,19.50
2022-10-19T09:39:18.683Z,19.77
2022-10-19T09:41:47.399Z,19.52
2022-10-19T09:44:14.552Z,19.50
2022-10-19T09:47:09.119Z,19.30
2022-10-19T09:49:47.387Z,18.75
2022-10-19T09:52:38.824Z,18.58
2022-10-19T09:55:15.004Z,20.95
2022-10-19T09:57:45.975Z,20.45
2022-10-19T10:00:21.523Z,20.23
2022-10-19T10:02:50.385Z,19.45
2022-10-19T10:05:17.885Z,19.15
2022-10-19T10:07:45.393Z,18.60
2022-10-19T10:10:41.265Z,18.40
2022-10-19T10:13:20.684Z,16.55
2022-10-19T10:15:55.090Z,15.88
2022-10-19T10:18:24.630Z,15.20
2022-10-19T10:21:26.434Z,14.98
2022-10-19T10:24:05.263Z,15.45
2022-10-19T10:26:45.738Z,14.65
2022-10-19T10:29:16.895Z,15.18
2022-10-19T10:31:44.286Z,15.07
2022-10-19T10:34:28.522Z,15.95
2022-10-19T10:37:01.504Z,14.57
2022-10-19T10:39:28.941Z,14.75
2022-10-19T10:41:56.680Z,14.13
2022-10-19T10:44:26.409Z,14.35
2022-10-19T10:46:58.284Z,15.13
2022-10-19T10:49:29.783Z,14.52
2022-10-19T10:51:57.931Z,13.95
2022-10-19T10:54:31.136Z,13.77
2022-10-19T10:57:16.477Z,13.82
2022-10-19T11:00:02.740Z,14.32
2022-10-19T11:02:48.579Z,13.75
2022-10-19T11:05:18.964Z,14.55
2022-10-19T11:07:47.757Z,14.25
2022-10-19T11:10:30.250Z,15.77
2022-10-19T11:13:25.376Z,14.32
2022-10-19T11:16:02.329Z,15.43
2022-10-19T11:18:50.464Z,15.13
2022-10-19T11:21:26.336Z,13.40
2022-10-19T11:24:31.797Z,13.25
2022-10-19T11:27:19.581Z,12.70
2022-10-19T11:30:02.763Z,13.18
2022-10-19T11:32:35.998Z,11.85
2022-10-19T11:35:16.008Z,11.10
2022-10-19T11:38:24.154Z,10.30
2022-10-19T11:41:17.354Z,9.25
2022-10-19T11:44:09.513Z,8.50
2022-10-19T11:46:49.051Z,7.78
2022-10-19T11:49:19.558Z,8.13
2022-10-19T11:52:02.342Z,7.38
2022-10-19T11:54:33.097Z,7.07
2022-10-19T11:57:11.701Z,7.60
2022-10-19T11:59:45.425Z,7.50
2022-10-19T12:02:39.952Z,7.65
2022-10-19T12:05:19.950Z,7.68
2022-10-19T12:07:56.437Z,7.18
2022-10-19T12:10:29.685Z,7.72
2022-10-19T12:13:05.123Z,7.75
2022-10-19T12:15:38.427Z,7.10
2022-10-19T12:18:10.566Z,6.63
2022-10-19T12:20:40.200Z,6.82
2022-10-19T12:23:34.619Z,6.85
2022-10-19T12:26:10.357Z,6.80
2022-10-19T12:28:39.531Z,6.40
2022-10-19T12:31:06.958Z,6.00
2022-10-19T12:33:48.863Z,5.70
2022-10-19T12:36:42.390Z,6.38
2022-10-19T12:39:28.637Z,6.25
2022-10-19T12:41:59.275Z,5.45
2022-10-19T12:44:39.982Z,6.15
2022-10-19T12:47:16.044Z,5.75
2022-10-19T12:49:44.692Z,5.70
2022-10-19T12:52:12.783Z,5.82
2022-10-19T12:54:43.491Z,6.28
2022-10-19T12:57:24.232Z,6.85
2022-10-19T13:00:05.101Z,6.03
2022-10-19T13:02:34.271Z,5.95
2022-10-19T13:05:01.489Z,7.32
2022-10-19T13:07:28.648Z,7.35
2022-10-19T13:10:00.562Z,7.15
2022-10-19T13:12:28.211Z,6.80
2022-10-19T13:14:56.890Z,8.18
2022-10-19T13:17:36.989Z,7.50
2022-10-19T13:20:13.354Z,8.18
2022-10-19T13:22:41.423Z,8.68
2022-10-19T13:25:21.431Z,9.55
2022-10-19T13:27:52.670Z,10.60
2022-10-19T13:30:42.112Z,10.73
2022-10-19T13:33:33.598Z,10.90
2022-10-19T13:36:00.952Z,9.98
2022-10-19T13:38:29.045Z,9.65
2022-10-19T13:41:07.139Z,8.73
2022-10-19T13:43:43.351Z,9.32
2022-10-19T13:46:14.749Z,9.27
2022-10-19T13:49:07.093Z,9.38
2022-10-19T13:51:55.852Z,9.32
2022-10-19T13:54:42.418Z,10.27
2022-10-19T13:57:34.982Z,10.02
2022-10-19T14:00:21.641Z,9.25
2022-10-19T14:03:19.246Z,8.65
2022-10-19T14:06:00.882Z,7.03
2022-10-19T14:08:41.037Z,6.90
2022-10-19T14:11:15.442Z,6.18
2022-10-19T14:13:43.231Z,5.20
2022-10-19T14:16:20.814Z,4.47
2022-10-19T14:18:55.225Z,5.60
2022-10-19T14:21:37.123Z,5.43
2022-10-19T14:24:31.422Z,6.25
2022-10-19T14:27:08.528Z,6.47
2022-10-19T14:29:49.455Z,7.97
2022-10-19T14:32:17.515Z,8.07
2022-10-19T14:34:47.655Z,6.70
2022-10-19T14:37:26.285Z,7.15
2022-10-19T14:40:06.741Z,7.43
2022-10-19T14:42:39.394Z,8.27
2022-10-19T14:45:12.129Z,8.00
2022-10-19T14:48:30.949Z,8.10
2022-10-19T14:50:58.306Z,7.97
2022-10-19T14:53:43.972Z,7.50
2022-10-19T14:56:43.479Z,7.28
2022-10-19T14:59:36.889Z,7.25
2022-10-19T15:02:10.955Z,8.13
2022-10-19T15:04:38.642Z,7.68
2022-10-19T15:07:23.938Z,7.85
2022-10-19T15:09:56.722Z,7.70
2022-10-19T15:12:28.514Z,7.82
2022-10-19T15:14:55.944Z,7.90
2022-10-19T15:17:28.250Z,8.25
2022-10-19T15:19:56.540Z,7.82
2022-10-19T15:22:33.057Z,7.32
2022-10-19T15:25:01.652Z,7.80
2022-10-19T15:27:35.618Z,7.38
2022-10-19T15:30:17.284Z,8.43
2022-10-19T15:32:45.500Z,6.88
2022-10-19T15:35:17.858Z,7.20
2022-10-19T15:37:45.378Z,6.18
2022-10-19T15:40:17.082Z,6.20
2022-10-19T15:42:46.780Z,6.22
2022-10-19T15:45:34.240Z,6.13
2022-10-19T15:48:25.859Z,5.88
2022-10-19T15:50:53.037Z,5.82
2022-10-19T15:53:20.679Z,6.32
2022-10-19T15:55:48.323Z,6.05
2022-10-19T15:58:15.637Z,5.93
2022-10-19T16:00:42.921Z,5.88
2022-10-19T16:03:10.090Z,6.00
2022-10-19T16:05:37.393Z,5.45
2022-10-19T16:08:07.869Z,5.63
2022-10-19T16:10:37.396Z,5.10
2022-10-19T16:13:04.613Z,5.13
2022-10-19T16:15:31.991Z,5.90
2022-10-19T16:17:59.534Z,5.28
2022-10-19T16:20:30.338Z,5.65
2022-10-19T16:22:57.912Z,5.43
2022-10-19T16:25:25.210Z,5.40
2022-10-19T16:27:52.418Z,5.47
2022-10-19T16:30:19.668Z,5.57
2022-10-19T16:32:49.908Z,5.05
2022-10-19T16:35:17.155Z,5.30
2022-10-19T16:37:44.880Z,5.07
2022-10-19T16:40:12.152Z,5.47
2022-10-19T16:42:39.406Z,6.05
2022-10-19T16:45:07.229Z,6.00
2022-10-19T16:47:34.376Z,5.95
2022-10-19T16:50:01.987Z,6.07
2022-10-19T16:52:31.336Z,5.43
2022-10-19T16:54:59.282Z,6.60
2022-10-19T16:57:26.526Z,6.05
2022-10-19T17:02:21.106Z,6.63
2022-10-19T17:04:48.258Z,5.95
2022-10-19T17:07:15.638Z,6.28
2022-10-19T17:09:43.434Z,6.80
2022-10-19T17:12:10.867Z,6.40
2022-10-19T17:14:38.984Z,7.40
2022-10-19T17:17:06.407Z,7.03
2022-10-19T17:19:33.640Z,7.63
2022-10-19T17:22:02.273Z,6.20
2022-10-19T17:24:29.434Z,6.90
2022-10-19T17:26:56.637Z,7.45
2022-10-19T17:29:23.797Z,8.30
2022-10-19T17:31:51.390Z,8.05
2022-10-19T17:34:18.642Z,7.32
2022-10-19T17:36:46.114Z,7.70
2022-10-19T17:39:17.575Z,7.78
2022-10-19T17:41:45.784Z,7.82
2022-10-19T17:44:13.231Z,8.02
2022-10-19T17:46:40.401Z,8.15
2022-10-19T17:49:07.592Z,8.50
2022-10-19T17:51:35.464Z,7.43
2022-10-19T17:54:07.686Z,7.47
2022-10-19T17:56:35.564Z,7.57
2022-10-19T17:59:03.263Z,7.72
2022-10-19T18:01:30.526Z,7.70
2022-10-19T18:03:57.732Z,8.10
2022-10-19T18:06:31.384Z,8.13
2022-10-19T18:08:59.511Z,7.82
2022-10-19T18:11:30.786Z,8.02
2022-10-19T18:13:59.367Z,7.32
2022-10-19T18:16:28.484Z,7.78
2022-10-19T18:18:56.767Z,8.38
2022-10-19T18:21:25.983Z,7.85
2022-10-19T18:23:53.703Z,8.45
2022-10-19T18:26:24.928Z,7.97
2022-10-19T18:28:52.866Z,8.27
2022-10-19T18:31:25.374Z,8.52
2022-10-19T18:34:00.308Z,8.77
2022-10-19T18:36:27.779Z,8.93
2022-10-19T18:38:56.517Z,8.98
2022-10-19T18:41:23.837Z,7.80
2022-10-19T18:43:55.682Z,8.95
2022-10-19T18:46:23.474Z,8.55
2022-10-19T18:48:50.697Z,8.18
2022-10-19T18:51:18.449Z,8.60
2022-10-19T18:53:46.014Z,8.80
2022-10-19T18:56:15.077Z,8.70
2022-10-19T18:58:42.378Z,8.63
2022-10-19T19:01:14.992Z,8.40
2022-10-19T19:03:43.589Z,9.07
2022-10-19T19:06:17.828Z,8.88
2022-10-19T19:11:21.564Z,8.52
2022-10-19T19:13:50.198Z,8.45
2022-10-19T19:16:17.516Z,8.20
2022-10-19T19:18:44.711Z,8.55
2022-10-19T19:21:19.747Z,8.02
2022-10-19T19:23:47.268Z,9.90
2022-10-19T19:26:14.845Z,9.23
2022-10-19T19:28:46.281Z,8.80
2022-10-19T19:31:17.938Z,8.65
2022-10-19T19:33:45.368Z,8.88
2022-10-19T19:36:13.198Z,8.75
2022-10-19T19:38:40.485Z,8.60
2022-10-19T19:41:14.245Z,8.07
2022-10-19T19:43:42.367Z,7.95
2022-10-19T19:46:18.948Z,8.10
2022-10-19T19:48:47.189Z,8.70
2022-10-19T19:51:16.398Z,7.57
2022-10-19T19:53:43.635Z,7.68
2022-10-19T19:56:11.353Z,8.48
2022-10-19T19:58:39.919Z,8.25
2022-10-19T20:01:19.337Z,8.88
2022-10-19T20:03:46.802Z,9.65
2022-10-19T20:06:19.663Z,9.00
2022-10-19T20:08:49.416Z,9.25
2022-10-19T20:11:17.490Z,9.88
2022-10-19T20:13:45.523Z,9.63
2022-10-19T20:16:14.914Z,9.38
2022-10-19T20:18:44.058Z,9.93
2022-10-19T20:21:11.341Z,9.85
2022-10-19T20:23:38.606Z,10.23
2022-10-19T20:26:05.958Z,10.13
2022-10-19T20:28:33.247Z,10.93
2022-10-19T20:31:02.337Z,9.88
2022-10-19T20:33:32.813Z,10.20
2022-10-19T20:36:13.802Z,10.18
2022-10-19T20:38:43.650Z,10.40
2022-10-19T20:41:10.858Z,10.30
2022-10-19T20:43:38.067Z,10.23
2022-10-19T20:46:15.982Z,10.60
2022-10-19T20:48:43.314Z,10.40
2022-10-19T20:51:11.997Z,10.35
2022-10-19T20:53:39.377Z,10.77
2022-10-19T20:56:07.735Z,11.05
2022-10-19T20:58:35.239Z,10.27
2022-10-19T21:01:12.866Z,10.57
2022-10-19T21:03:40.411Z,10.25
2022-10-19T21:06:08.308Z,10.82
2022-10-19T21:08:35.804Z,10.23
2022-10-19T21:11:13.699Z,10.63
2022-10-19T21:13:42.812Z,10.60
2022-10-19T21:16:17.507Z,10.88
2022-10-19T21:18:45.670Z,10.18
2022-10-19T21:21:17.062Z,10.68
2022-10-19T21:23:45.497Z,10.30
2022-10-19T21:26:13.164Z,9.52
2022-10-19T21:28:41.578Z,10.85
2022-10-19T21:31:09.319Z,11.13
2022-10-19T21:33:36.538Z,10.20
2022-10-19T21:36:04.567Z,11.07
2022-10-19T21:38:31.761Z,10.23
2022-10-19T21:40:59.657Z,11.23
2022-10-19T21:43:27.221Z,11.10
2022-10-19T21:45:54.401Z,11.38
2022-10-19T21:48:21.834Z,11.63
2022-10-19T21:50:49.328Z,11.68
2022-10-19T21:53:20.493Z,11.45
2022-10-19T21:55:47.706Z,11.68
2022-10-19T21:58:14.930Z,13.65
2022-10-19T22:00:42.738Z,13.05
2022-10-19T22:03:10.429Z,13.55
2022-10-19T22:05:37.645Z,13.68
2022-10-19T22:08:04.901Z,13.88
2022-10-19T22:10:32.138Z,13.48
2022-10-19T22:12:59.389Z,12.95
2022-10-19T22:15:26.561Z,13.48
2022-10-19T22:17:53.713Z,13.25
2022-10-19T22:20:20.994Z,13.55
2022-10-19T22:22:50.321Z,13.38
2022-10-19T22:25:19.922Z,13.85
2022-10-19T22:27:47.047Z,13.93
2022-10-19T22:30:14.205Z,14.20
2022-10-19T22:32:41.411Z,14.00
2022-10-19T22:35:08.771Z,14.48
2022-10-19T22:37:35.946Z,14.65
2022-10-19T22:40:03.270Z,14.23
2022-10-19T22:42:30.451Z,13.43
2022-10-19T22:44:57.675Z,14.57
2022-10-19T22:47:24.895Z,12.85
2022-10-19T22:49:52.037Z,13.93
2022-10-19T22:52:19.187Z,13.63
2022-10-19T22:54:46.375Z,13.70
2022-10-19T22:57:13.524Z,13.45
2022-10-19T22:59:41.517Z,13.77
2022-10-19T23:02:08.650Z,15.45
2022-10-19T23:04:35.781Z,15.52
2022-10-19T23:07:02.970Z,14.73
2022-10-19T23:09:30.218Z,15.40
2022-10-19T23:11:57.341Z,15.30
2022-10-19T23:14:24.524Z,15.68
2022-10-19T23:16:51.664Z,16.92
2022-10-19T23:19:18.911Z,17.27
2022-10-19T23:21:46.048Z,16.98
2022-10-19T23:24:13.169Z,17.55
2022-10-19T23:26:40.366Z,17.63
2022-10-19T23:29:07.718Z,18.02
2022-10-19T23:31:35.257Z,19.63
2022-10-19T23:34:02.381Z,18.90
2022-10-19T23:36:29.570Z,19.77
2022-10-19T23:38:57.199Z,19.77
2022-10-19T23:41:24.692Z,20.52
2022-10-19T23:43:51.835Z,21.52
2022-10-19T23:46:19.004Z,22.38
2022-10-19T23:48:46.216Z,22.05
2022-10-19T23:51:15.603Z,23.17
2022-10-19T23:53:43.799Z,23.02
2022-10-19T23:56:18.955Z,25.23
2022-10-19T23:58:46.201Z,25.38
